sensor_id;sensor_type;location;lat;lon;timestamp;P1;durP1;ratioP1;P2;durP2;ratioP2
39888;SDS011;25563;50.844;4.308;2024-03-25T00:01:42;10.68;;;7.15;;
39888;SDS011;25563;50.844;4.308;2024-03-25T00:04:08;12.25;;;7.85;;
39888;SDS011;25563;50.844;4.308;2024-03-25T00:06:34;9.82;;;7.70;;
39888;SDS011;25563;50.844;4.308;2024-03-25T00:09:03;9.82;;;7.97;;
39888;SDS011;25563;50.844;4.308;2024-03-25T00:11:29;9.30;;;7.60;;
39888;SDS011;25563;50.844;4.308;2024-03-25T00:13:54;7.90;;;7.10;;
39888;SDS011;25563;50.844;4.308;2024-03-25T00:16:21;16.60;;;8.75;;
39888;SDS011;25563;50.844;4.308;2024-03-25T00:18:47;13.55;;;8.43;;
39888;SDS011;25563;50.844;4.308;2024-03-25T00:21:13;12.18;;;8.07;;
39888;SDS011;25563;50.844;4.308;2024-03-25T00:23:39;11.75;;;8.25;;
39888;SDS011;25563;50.844;4.308;2024-03-25T00:26:04;10.82;;;7.75;;
39888;SDS011;25563;50.844;4.308;2024-03-25T00:28:30;15.00;;;7.80;;
39888;SDS011;25563;50.844;4.308;2024-03-25T00:30:56;9.00;;;8.07;;
39888;SDS011;25563;50.844;4.308;2024-03-25T00:33:22;8.93;;;8.13;;
39888;SDS011;25563;50.844;4.308;2024-03-25T00:35:49;10.00;;;7.47;;
39888;SDS011;25563;50.844;4.308;2024-03-25T00:38:15;10.63;;;7.65;;
39888;SDS011;25563;50.844;4.308;2024-03-25T00:40:41;11.32;;;9.07;;
39888;SDS011;25563;50.844;4.308;2024-03-25T00:43:07;9.77;;;8.60;;
39888;SDS011;25563;50.844;4.308;2024-03-25T00:45:32;11.45;;;7.90;;
39888;SDS011;25563;50.844;4.308;2024-03-25T00:47:58;13.07;;;8.88;;
39888;SDS011;25563;50.844;4.308;2024-03-25T00:50:25;10.63;;;8.88;;
39888;SDS011;25563;50.844;4.308;2024-03-25T00:52:51;13.98;;;11.20;;
39888;SDS011;25563;50.844;4.308;2024-03-25T00:55:17;19.80;;;13.27;;
39888;SDS011;25563;50.844;4.308;2024-03-25T00:57:44;25.58;;;14.27;;
39888;SDS011;25563;50.844;4.308;2024-03-25T01:00:10;18.90;;;13.70;;
39888;SDS011;25563;50.844;4.308;2024-03-25T01:02:36;32.05;;;16.60;;
39888;SDS011;25563;50.844;4.308;2024-03-25T01:05:03;19.42;;;13.82;;
39888;SDS011;25563;50.844;4.308;2024-03-25T01:07:30;19.42;;;14.10;;
39888;SDS011;25563;50.844;4.308;2024-03-25T01:09:56;26.90;;;14.75;;
39888;SDS011;25563;50.844;4.308;2024-03-25T01:12:23;20.65;;;12.77;;
39888;SDS011;25563;50.844;4.308;2024-03-25T01:17:53;16.75;;;10.52;;
39888;SDS011;25563;50.844;4.308;2024-03-25T01:20:19;17.77;;;10.30;;
39888;SDS011;25563;50.844;4.308;2024-03-25T01:22:44;10.27;;;9.15;;
39888;SDS011;25563;50.844;4.308;2024-03-25T01:25:10;12.30;;;9.02;;
39888;SDS011;25563;50.844;4.308;2024-03-25T01:27:36;9.85;;;8.18;;
39888;SDS011;25563;50.844;4.308;2024-03-25T01:30:01;10.30;;;7.80;;
39888;SDS011;25563;50.844;4.308;2024-03-25T01:32:30;10.15;;;7.57;;
39888;SDS011;25563;50.844;4.308;2024-03-25T01:34:55;11.10;;;7.18;;
39888;SDS011;25563;50.844;4.308;2024-03-25T01:37:22;8.40;;;7.55;;
39888;SDS011;25563;50.844;4.308;2024-03-25T01:39:48;8.05;;;7.32;;
39888;SDS011;25563;50.844;4.308;2024-03-25T01:42:14;10.60;;;8.63;;
39888;SDS011;25563;50.844;4.308;2024-03-25T01:44:39;10.18;;;7.28;;
39888;SDS011;25563;50.844;4.308;2024-03-25T01:47:06;9.30;;;7.43;;
39888;SDS011;25563;50.844;4.308;2024-03-25T01:49:31;13.15;;;8.07;;
39888;SDS011;25563;50.844;4.308;2024-03-25T01:51:57;17.20;;;6.97;;
39888;SDS011;25563;50.844;4.308;2024-03-25T01:54:23;10.38;;;7.32;;
39888;SDS011;25563;50.844;4.308;2024-03-25T01:56:49;8.27;;;6.72;;
39888;SDS011;25563;50.844;4.308;2024-03-25T01:59:15;10.73;;;7.60;;
39888;SDS011;25563;50.844;4.308;2024-03-25T02:01:43;9.25;;;7.70;;
39888;SDS011;25563;50.844;4.308;2024-03-25T02:04:10;11.98;;;7.72;;
39888;SDS011;25563;50.844;4.308;2024-03-25T02:06:37;15.30;;;8.07;;
39888;SDS011;25563;50.844;4.308;2024-03-25T02:09:05;15.68;;;8.00;;
39888;SDS011;25563;50.844;4.308;2024-03-25T02:11:31;9.07;;;8.20;;
39888;SDS011;25563;50.844;4.308;2024-03-25T02:13:58;16.83;;;8.00;;
39888;SDS011;25563;50.844;4.308;2024-03-25T02:16:24;12.43;;;8.55;;
39888;SDS011;25563;50.844;4.308;2024-03-25T02:18:50;13.48;;;9.05;;
39888;SDS011;25563;50.844;4.308;2024-03-25T02:21:16;14.40;;;7.95;;
39888;SDS011;25563;50.844;4.308;2024-03-25T02:23:42;16.55;;;9.00;;
39888;SDS011;25563;50.844;4.308;2024-03-25T02:26:11;11.10;;;8.85;;
39888;SDS011;25563;50.844;4.308;2024-03-25T02:28:37;11.02;;;8.98;;
39888;SDS011;25563;50.844;4.308;2024-03-25T02:31:03;16.10;;;8.73;;
39888;SDS011;25563;50.844;4.308;2024-03-25T02:33:29;10.90;;;8.52;;
39888;SDS011;25563;50.844;4.308;2024-03-25T02:35:54;19.00;;;8.50;;
39888;SDS011;25563;50.844;4.308;2024-03-25T02:38:20;20.05;;;8.50;;
39888;SDS011;25563;50.844;4.308;2024-03-25T02:40:46;14.80;;;9.18;;
39888;SDS011;25563;50.844;4.308;2024-03-25T02:43:12;15.77;;;8.68;;
39888;SDS011;25563;50.844;4.308;2024-03-25T02:45:38;11.45;;;9.38;;
39888;SDS011;25563;50.844;4.308;2024-03-25T02:48:04;13.48;;;8.75;;
39888;SDS011;25563;50.844;4.308;2024-03-25T02:50:30;19.85;;;9.43;;
39888;SDS011;25563;50.844;4.308;2024-03-25T02:52:56;19.65;;;9.68;;
39888;SDS011;25563;50.844;4.308;2024-03-25T02:55:21;20.50;;;8.77;;
39888;SDS011;25563;50.844;4.308;2024-03-25T02:57:47;17.42;;;9.15;;
39888;SDS011;25563;50.844;4.308;2024-03-25T03:00:13;14.93;;;10.00;;
39888;SDS011;25563;50.844;4.308;2024-03-25T03:02:39;17.73;;;10.10;;
39888;SDS011;25563;50.844;4.308;2024-03-25T03:05:05;18.88;;;9.35;;
39888;SDS011;25563;50.844;4.308;2024-03-25T03:07:31;17.25;;;9.35;;
39888;SDS011;25563;50.844;4.308;2024-03-25T03:09:56;22.27;;;9.38;;
39888;SDS011;25563;50.844;4.308;2024-03-25T03:12:22;19.98;;;9.85;;
39888;SDS011;25563;50.844;4.308;2024-03-25T03:14:48;23.92;;;9.27;;
39888;SDS011;25563;50.844;4.308;2024-03-25T03:17:14;19.38;;;9.77;;
39888;SDS011;25563;50.844;4.308;2024-03-25T03:19:40;19.17;;;9.65;;
39888;SDS011;25563;50.844;4.308;2024-03-25T03:22:06;22.20;;;9.52;;
39888;SDS011;25563;50.844;4.308;2024-03-25T03:24:31;18.77;;;9.68;;
39888;SDS011;25563;50.844;4.308;2024-03-25T03:26:58;16.75;;;9.63;;
39888;SDS011;25563;50.844;4.308;2024-03-25T03:29:24;22.20;;;10.38;;
39888;SDS011;25563;50.844;4.308;2024-03-25T03:31:51;16.73;;;9.73;;
39888;SDS011;25563;50.844;4.308;2024-03-25T03:34:17;20.15;;;10.43;;
39888;SDS011;25563;50.844;4.308;2024-03-25T03:36:42;22.75;;;10.60;;
39888;SDS011;25563;50.844;4.308;2024-03-25T03:39:08;19.55;;;10.93;;
39888;SDS011;25563;50.844;4.308;2024-03-25T03:41:34;25.40;;;9.63;;
39888;SDS011;25563;50.844;4.308;2024-03-25T03:44:00;31.55;;;11.60;;
39888;SDS011;25563;50.844;4.308;2024-03-25T03:46:26;23.75;;;12.10;;
39888;SDS011;25563;50.844;4.308;2024-03-25T03:48:52;23.13;;;12.73;;
39888;SDS011;25563;50.844;4.308;2024-03-25T03:51:18;27.55;;;11.27;;
39888;SDS011;25563;50.844;4.308;2024-03-25T03:53:44;29.80;;;12.32;;
39888;SDS011;25563;50.844;4.308;2024-03-25T03:56:09;22.08;;;12.45;;
39888;SDS011;25563;50.844;4.308;2024-03-25T03:58:35;34.92;;;13.73;;
39888;SDS011;25563;50.844;4.308;2024-03-25T04:01:01;34.13;;;12.65;;
39888;SDS011;25563;50.844;4.308;2024-03-25T04:03:28;34.15;;;14.93;;
39888;SDS011;25563;50.844;4.308;2024-03-25T04:05:53;37.92;;;13.13;;
39888;SDS011;25563;50.844;4.308;2024-03-25T04:08:20;43.08;;;15.52;;
39888;SDS011;25563;50.844;4.308;2024-03-25T04:10:46;38.85;;;15.45;;
39888;SDS011;25563;50.844;4.308;2024-03-25T04:13:12;42.50;;;15.85;;
39888;SDS011;25563;50.844;4.308;2024-03-25T04:15:38;30.67;;;16.33;;
39888;SDS011;25563;50.844;4.308;2024-03-25T04:18:05;42.53;;;15.20;;
39888;SDS011;25563;50.844;4.308;2024-03-25T04:20:40;51.08;;;16.33;;
39888;SDS011;25563;50.844;4.308;2024-03-25T04:23:06;40.88;;;15.30;;
39888;SDS011;25563;50.844;4.308;2024-03-25T04:25:33;45.80;;;16.75;;
39888;SDS011;25563;50.844;4.308;2024-03-25T04:28:02;42.67;;;16.65;;
39888;SDS011;25563;50.844;4.308;2024-03-25T04:30:28;46.22;;;16.92;;
39888;SDS011;25563;50.844;4.308;2024-03-25T04:32:54;44.92;;;16.60;;
39888;SDS011;25563;50.844;4.308;2024-03-25T04:35:20;42.25;;;16.23;;
39888;SDS011;25563;50.844;4.308;2024-03-25T04:37:45;48.33;;;17.58;;
39888;SDS011;25563;50.844;4.308;2024-03-25T04:40:11;42.30;;;17.60;;
39888;SDS011;25563;50.844;4.308;2024-03-25T04:42:39;41.90;;;17.42;;
39888;SDS011;25563;50.844;4.308;2024-03-25T04:45:05;47.85;;;18.55;;
39888;SDS011;25563;50.844;4.308;2024-03-25T04:47:31;44.28;;;17.05;;
39888;SDS011;25563;50.844;4.308;2024-03-25T04:49:57;56.95;;;17.33;;
39888;SDS011;25563;50.844;4.308;2024-03-25T04:52:23;47.20;;;18.55;;
39888;SDS011;25563;50.844;4.308;2024-03-25T04:54:50;56.10;;;19.45;;
39888;SDS011;25563;50.844;4.308;2024-03-25T04:57:16;50.75;;;17.23;;
39888;SDS011;25563;50.844;4.308;2024-03-25T04:59:42;51.55;;;17.98;;
39888;SDS011;25563;50.844;4.308;2024-03-25T05:02:08;48.58;;;18.45;;
39888;SDS011;25563;50.844;4.308;2024-03-25T05:04:34;41.50;;;17.88;;
39888;SDS011;25563;50.844;4.308;2024-03-25T05:07:00;51.33;;;19.15;;
39888;SDS011;25563;50.844;4.308;2024-03-25T05:09:26;69.85;;;20.67;;
39888;SDS011;25563;50.844;4.308;2024-03-25T05:11:52;67.43;;;21.65;;
39888;SDS011;25563;50.844;4.308;2024-03-25T05:14:17;61.25;;;20.27;;
39888;SDS011;25563;50.844;4.308;2024-03-25T05:16:43;59.85;;;20.33;;
39888;SDS011;25563;50.844;4.308;2024-03-25T05:19:09;57.10;;;20.60;;
39888;SDS011;25563;50.844;4.308;2024-03-25T05:21:35;48.63;;;19.25;;
39888;SDS011;25563;50.844;4.308;2024-03-25T05:24:01;60.88;;;20.77;;
39888;SDS011;25563;50.844;4.308;2024-03-25T05:26:26;60.30;;;22.33;;
39888;SDS011;25563;50.844;4.308;2024-03-25T05:28:56;59.45;;;20.17;;
39888;SDS011;25563;50.844;4.308;2024-03-25T05:31:22;71.15;;;21.95;;
39888;SDS011;25563;50.844;4.308;2024-03-25T05:33:48;63.65;;;22.75;;
39888;SDS011;25563;50.844;4.308;2024-03-25T05:36:15;73.03;;;22.33;;
39888;SDS011;25563;50.844;4.308;2024-03-25T05:38:40;69.28;;;24.00;;
39888;SDS011;25563;50.844;4.308;2024-03-25T05:41:10;70.33;;;23.97;;
39888;SDS011;25563;50.844;4.308;2024-03-25T05:43:35;71.95;;;23.75;;
39888;SDS011;25563;50.844;4.308;2024-03-25T05:46:02;75.32;;;25.75;;
39888;SDS011;25563;50.844;4.308;2024-03-25T05:48:28;77.00;;;25.73;;
39888;SDS011;25563;50.844;4.308;2024-03-25T05:53:32;77.95;;;26.55;;
39888;SDS011;25563;50.844;4.308;2024-03-25T05:55:58;76.78;;;26.27;;
39888;SDS011;25563;50.844;4.308;2024-03-25T05:58:24;75.93;;;25.70;;
39888;SDS011;25563;50.844;4.308;2024-03-25T06:00:50;70.85;;;24.77;;
39888;SDS011;25563;50.844;4.308;2024-03-25T06:03:18;75.97;;;24.35;;
39888;SDS011;25563;50.844;4.308;2024-03-25T06:05:44;66.43;;;22.42;;
39888;SDS011;25563;50.844;4.308;2024-03-25T06:08:09;77.32;;;23.77;;
39888;SDS011;25563;50.844;4.308;2024-03-25T06:10:47;68.05;;;26.33;;
39888;SDS011;25563;50.844;4.308;2024-03-25T06:13:13;62.00;;;24.33;;
39888;SDS011;25563;50.844;4.308;2024-03-25T06:15:41;59.45;;;23.05;;
39888;SDS011;25563;50.844;4.308;2024-03-25T06:18:08;68.68;;;23.60;;
39888;SDS011;25563;50.844;4.308;2024-03-25T06:20:33;57.00;;;22.08;;
39888;SDS011;25563;50.844;4.308;2024-03-25T06:22:59;65.40;;;22.55;;
39888;SDS011;25563;50.844;4.308;2024-03-25T06:25:26;64.30;;;21.70;;
39888;SDS011;25563;50.844;4.308;2024-03-25T06:27:53;54.42;;;21.42;;
39888;SDS011;25563;50.844;4.308;2024-03-25T06:30:19;67.95;;;22.52;;
39888;SDS011;25563;50.844;4.308;2024-03-25T06:33:04;66.80;;;21.48;;
39888;SDS011;25563;50.844;4.308;2024-03-25T06:35:48;53.92;;;20.92;;
39888;SDS011;25563;50.844;4.308;2024-03-25T06:38:14;62.95;;;20.67;;
39888;SDS011;25563;50.844;4.308;2024-03-25T06:40:40;59.63;;;20.83;;
39888;SDS011;25563;50.844;4.308;2024-03-25T06:43:06;62.08;;;20.98;;
39888;SDS011;25563;50.844;4.308;2024-03-25T06:45:31;54.00;;;19.00;;
39888;SDS011;25563;50.844;4.308;2024-03-25T06:47:57;58.97;;;21.35;;
39888;SDS011;25563;50.844;4.308;2024-03-25T06:50:23;62.15;;;19.58;;
39888;SDS011;25563;50.844;4.308;2024-03-25T06:52:49;65.80;;;21.00;;
39888;SDS011;25563;50.844;4.308;2024-03-25T06:55:15;58.10;;;19.27;;
39888;SDS011;25563;50.844;4.308;2024-03-25T06:57:41;55.03;;;18.95;;
39888;SDS011;25563;50.844;4.308;2024-03-25T07:00:06;51.45;;;19.42;;
39888;SDS011;25563;50.844;4.308;2024-03-25T07:02:38;57.90;;;19.70;;
39888;SDS011;25563;50.844;4.308;2024-03-25T07:05:06;59.92;;;19.70;;
39888;SDS011;25563;50.844;4.308;2024-03-25T07:07:33;50.38;;;19.33;;
39888;SDS011;25563;50.844;4.308;2024-03-25T07:10:03;51.33;;;19.70;;
39888;SDS011;25563;50.844;4.308;2024-03-25T07:12:29;56.88;;;20.80;;
39888;SDS011;25563;50.844;4.308;2024-03-25T07:14:55;49.92;;;20.95;;
39888;SDS011;25563;50.844;4.308;2024-03-25T07:17:20;56.55;;;19.67;;
39888;SDS011;25563;50.844;4.308;2024-03-25T07:19:49;51.95;;;18.85;;
39888;SDS011;25563;50.844;4.308;2024-03-25T07:22:15;55.72;;;21.42;;
39888;SDS011;25563;50.844;4.308;2024-03-25T07:24:40;45.53;;;18.48;;
39888;SDS011;25563;50.844;4.308;2024-03-25T07:27:06;45.78;;;17.23;;
39888;SDS011;25563;50.844;4.308;2024-03-25T07:29:33;51.60;;;17.75;;
39888;SDS011;25563;50.844;4.308;2024-03-25T07:31:58;54.67;;;17.17;;
39888;SDS011;25563;50.844;4.308;2024-03-25T07:34:24;56.50;;;17.65;;
39888;SDS011;25563;50.844;4.308;2024-03-25T07:36:51;41.28;;;16.02;;
39888;SDS011;25563;50.844;4.308;2024-03-25T07:39:19;34.55;;;15.35;;
39888;SDS011;25563;50.844;4.308;2024-03-25T07:41:49;36.95;;;14.82;;
39888;SDS011;25563;50.844;4.308;2024-03-25T07:44:16;40.90;;;17.13;;
39888;SDS011;25563;50.844;4.308;2024-03-25T07:46:42;48.97;;;15.13;;
39888;SDS011;25563;50.844;4.308;2024-03-25T07:49:08;45.00;;;15.95;;
39888;SDS011;25563;50.844;4.308;2024-03-25T07:51:34;49.38;;;16.65;;
39888;SDS011;25563;50.844;4.308;2024-03-25T07:54:02;44.33;;;15.02;;
39888;SDS011;25563;50.844;4.308;2024-03-25T07:56:30;36.00;;;14.20;;
39888;SDS011;25563;50.844;4.308;2024-03-25T07:59:02;39.92;;;14.52;;
39888;SDS011;25563;50.844;4.308;2024-03-25T08:01:29;29.10;;;13.02;;
39888;SDS011;25563;50.844;4.308;2024-03-25T08:03:55;54.22;;;14.15;;
39888;SDS011;25563;50.844;4.308;2024-03-25T08:06:20;37.95;;;14.52;;
39888;SDS011;25563;50.844;4.308;2024-03-25T08:08:46;29.67;;;12.30;;
39888;SDS011;25563;50.844;4.308;2024-03-25T08:11:12;42.50;;;12.98;;
39888;SDS011;25563;50.844;4.308;2024-03-25T08:13:38;41.63;;;13.52;;
39888;SDS011;25563;50.844;4.308;2024-03-25T08:16:04;37.17;;;12.75;;
39888;SDS011;25563;50.844;4.308;2024-03-25T08:18:30;36.60;;;13.80;;
39888;SDS011;25563;50.844;4.308;2024-03-25T08:20:55;39.33;;;12.25;;
39888;SDS011;25563;50.844;4.308;2024-03-25T08:23:21;28.70;;;12.63;;
39888;SDS011;25563;50.844;4.308;2024-03-25T08:25:48;28.77;;;12.57;;
39888;SDS011;25563;50.844;4.308;2024-03-25T08:28:14;25.35;;;12.32;;
39888;SDS011;25563;50.844;4.308;2024-03-25T08:30:40;25.58;;;11.32;;
39888;SDS011;25563;50.844;4.308;2024-03-25T08:33:05;30.98;;;11.85;;
39888;SDS011;25563;50.844;4.308;2024-03-25T08:35:31;21.73;;;10.10;;
39888;SDS011;25563;50.844;4.308;2024-03-25T08:37:58;33.95;;;12.30;;
39888;SDS011;25563;50.844;4.308;2024-03-25T08:40:24;43.55;;;11.77;;
39888;SDS011;25563;50.844;4.308;2024-03-25T08:42:50;38.40;;;12.32;;
39888;SDS011;25563;50.844;4.308;2024-03-25T08:45:16;34.67;;;11.77;;
39888;SDS011;25563;50.844;4.308;2024-03-25T08:47:42;25.45;;;10.38;;
39888;SDS011;25563;50.844;4.308;2024-03-25T08:50:09;33.22;;;10.93;;
39888;SDS011;25563;50.844;4.308;2024-03-25T08:52:36;32.13;;;11.10;;
39888;SDS011;25563;50.844;4.308;2024-03-25T08:55:05;34.42;;;10.90;;
39888;SDS011;25563;50.844;4.308;2024-03-25T08:57:31;25.40;;;9.98;;
39888;SDS011;25563;50.844;4.308;2024-03-25T08:59:57;25.48;;;10.68;;
39888;SDS011;25563;50.844;4.308;2024-03-25T09:02:22;43.47;;;11.55;;
39888;SDS011;25563;50.844;4.308;2024-03-25T09:04:48;29.45;;;10.75;;
39888;SDS011;25563;50.844;4.308;2024-03-25T09:07:15;38.35;;;10.88;;
39888;SDS011;25563;50.844;4.308;2024-03-25T09:09:41;31.90;;;12.25;;
39888;SDS011;25563;50.844;4.308;2024-03-25T09:12:26;38.75;;;11.85;;
39888;SDS011;25563;50.844;4.308;2024-03-25T09:14:53;20.58;;;9.95;;
39888;SDS011;25563;50.844;4.308;2024-03-25T09:17:18;20.08;;;9.18;;
39888;SDS011;25563;50.844;4.308;2024-03-25T09:19:44;17.20;;;9.23;;
39888;SDS011;25563;50.844;4.308;2024-03-25T09:22:11;22.70;;;8.93;;
39888;SDS011;25563;50.844;4.308;2024-03-25T09:24:37;39.13;;;9.10;;
39888;SDS011;25563;50.844;4.308;2024-03-25T09:27:03;20.60;;;9.45;;
39888;SDS011;25563;50.844;4.308;2024-03-25T09:29:29;24.42;;;9.05;;
39888;SDS011;25563;50.844;4.308;2024-03-25T09:31:57;19.95;;;9.25;;
39888;SDS011;25563;50.844;4.308;2024-03-25T09:34:24;22.02;;;8.35;;
39888;SDS011;25563;50.844;4.308;2024-03-25T09:36:50;20.85;;;8.35;;
39888;SDS011;25563;50.844;4.308;2024-03-25T09:39:16;19.40;;;8.45;;
39888;SDS011;25563;50.844;4.308;2024-03-25T09:41:42;17.38;;;8.82;;
39888;SDS011;25563;50.844;4.308;2024-03-25T09:44:09;21.38;;;9.25;;
39888;SDS011;25563;50.844;4.308;2024-03-25T09:46:35;18.08;;;8.95;;
39888;SDS011;25563;50.844;4.308;2024-03-25T09:49:02;14.02;;;7.57;;
39888;SDS011;25563;50.844;4.308;2024-03-25T09:51:30;15.35;;;6.45;;
39888;SDS011;25563;50.844;4.308;2024-03-25T09:53:57;18.00;;;8.10;;
39888;SDS011;25563;50.844;4.308;2024-03-25T09:56:24;20.58;;;8.15;;
39888;SDS011;25563;50.844;4.308;2024-03-25T09:58:51;18.75;;;8.57;;
39888;SDS011;25563;50.844;4.308;2024-03-25T10:01:17;17.88;;;9.05;;
39888;SDS011;25563;50.844;4.308;2024-03-25T10:06:48;15.00;;;8.93;;
39888;SDS011;25563;50.844;4.308;2024-03-25T10:09:18;13.30;;;7.35;;
39888;SDS011;25563;50.844;4.308;2024-03-25T10:11:46;15.23;;;7.50;;
39888;SDS011;25563;50.844;4.308;2024-03-25T10:14:14;19.33;;;7.97;;
39888;SDS011;25563;50.844;4.308;2024-03-25T10:16:50;10.93;;;8.65;;
39888;SDS011;25563;50.844;4.308;2024-03-25T10:19:15;13.45;;;7.07;;
39888;SDS011;25563;50.844;4.308;2024-03-25T10:21:41;12.52;;;6.70;;
39888;SDS011;25563;50.844;4.308;2024-03-25T10:24:07;12.30;;;7.35;;
39888;SDS011;25563;50.844;4.308;2024-03-25T10:26:33;16.25;;;5.82;;
39888;SDS011;25563;50.844;4.308;2024-03-25T10:31:28;11.90;;;5.55;;
39888;SDS011;25563;50.844;4.308;2024-03-25T10:33:53;7.78;;;4.85;;
39888;SDS011;25563;50.844;4.308;2024-03-25T10:36:19;13.27;;;5.90;;
39888;SDS011;25563;50.844;4.308;2024-03-25T10:38:50;10.80;;;4.45;;
39888;SDS011;25563;50.844;4.308;2024-03-25T10:41:22;9.60;;;5.15;;
39888;SDS011;25563;50.844;4.308;2024-03-25T10:43:50;15.27;;;4.60;;
39888;SDS011;25563;50.844;4.308;2024-03-25T10:46:19;10.57;;;4.75;;
39888;SDS011;25563;50.844;4.308;2024-03-25T10:48:53;10.52;;;4.50;;
39888;SDS011;25563;50.844;4.308;2024-03-25T10:51:26;14.55;;;4.90;;
39888;SDS011;25563;50.844;4.308;2024-03-25T10:53:53;12.00;;;4.30;;
39888;SDS011;25563;50.844;4.308;2024-03-25T10:56:20;10.70;;;3.47;;
39888;SDS011;25563;50.844;4.308;2024-03-25T10:58:49;9.63;;;3.60;;
39888;SDS011;25563;50.844;4.308;2024-03-25T11:01:18;6.65;;;3.53;;
39888;SDS011;25563;50.844;4.308;2024-03-25T11:03:48;7.72;;;3.10;;
39888;SDS011;25563;50.844;4.308;2024-03-25T11:08:42;5.35;;;3.38;;
39888;SDS011;25563;50.844;4.308;2024-03-25T11:11:12;5.07;;;3.28;;
39888;SDS011;25563;50.844;4.308;2024-03-25T11:13:38;4.00;;;2.45;;
39888;SDS011;25563;50.844;4.308;2024-03-25T11:16:05;6.03;;;2.40;;
39888;SDS011;25563;50.844;4.308;2024-03-25T11:18:35;7.53;;;2.08;;
39888;SDS011;25563;50.844;4.308;2024-03-25T11:23:43;11.90;;;2.90;;
39888;SDS011;25563;50.844;4.308;2024-03-25T11:26:19;8.63;;;2.53;;
39888;SDS011;25563;50.844;4.308;2024-03-25T11:28:55;3.75;;;2.33;;
39888;SDS011;25563;50.844;4.308;2024-03-25T11:31:25;5.60;;;2.53;;
39888;SDS011;25563;50.844;4.308;2024-03-25T11:33:52;8.15;;;3.65;;
39888;SDS011;25563;50.844;4.308;2024-03-25T11:36:18;6.75;;;2.95;;
39888;SDS011;25563;50.844;4.308;2024-03-25T11:38:45;3.92;;;2.95;;
39888;SDS011;25563;50.844;4.308;2024-03-25T11:41:11;9.15;;;2.55;;
39888;SDS011;25563;50.844;4.308;2024-03-25T11:43:37;10.15;;;2.30;;
39888;SDS011;25563;50.844;4.308;2024-03-25T11:46:05;3.70;;;2.03;;
39888;SDS011;25563;50.844;4.308;2024-03-25T11:48:31;4.18;;;2.13;;
39888;SDS011;25563;50.844;4.308;2024-03-25T11:50:58;5.85;;;2.30;;
39888;SDS011;25563;50.844;4.308;2024-03-25T11:53:25;4.68;;;1.75;;
39888;SDS011;25563;50.844;4.308;2024-03-25T11:55:52;4.65;;;1.90;;
39888;SDS011;25563;50.844;4.308;2024-03-25T11:58:18;2.75;;;1.75;;
39888;SDS011;25563;50.844;4.308;2024-03-25T12:00:44;4.25;;;2.10;;
39888;SDS011;25563;50.844;4.308;2024-03-25T12:03:14;5.43;;;2.22;;
39888;SDS011;25563;50.844;4.308;2024-03-25T12:08:09;4.20;;;1.55;;
39888;SDS011;25563;50.844;4.308;2024-03-25T12:10:36;4.28;;;2.03;;
39888;SDS011;25563;50.844;4.308;2024-03-25T12:13:21;4.18;;;1.90;;
39888;SDS011;25563;50.844;4.308;2024-03-25T12:15:47;4.97;;;1.73;;
39888;SDS011;25563;50.844;4.308;2024-03-25T12:18:14;4.35;;;1.85;;
39888;SDS011;25563;50.844;4.308;2024-03-25T12:20:40;3.13;;;1.92;;
39888;SDS011;25563;50.844;4.308;2024-03-25T12:23:06;6.47;;;1.90;;
39888;SDS011;25563;50.844;4.308;2024-03-25T12:25:32;9.13;;;2.08;;
39888;SDS011;25563;50.844;4.308;2024-03-25T12:27:58;9.10;;;1.50;;
39888;SDS011;25563;50.844;4.308;2024-03-25T12:30:24;4.80;;;1.65;;
39888;SDS011;25563;50.844;4.308;2024-03-25T12:32:50;3.17;;;1.40;;
39888;SDS011;25563;50.844;4.308;2024-03-25T12:35:17;2.15;;;1.35;;
39888;SDS011;25563;50.844;4.308;2024-03-25T12:37:44;2.33;;;1.67;;
39888;SDS011;25563;50.844;4.308;2024-03-25T12:40:13;2.70;;;1.20;;
39888;SDS011;25563;50.844;4.308;2024-03-25T12:42:52;2.90;;;1.30;;
39888;SDS011;25563;50.844;4.308;2024-03-25T12:45:18;4.25;;;1.75;;
39888;SDS011;25563;50.844;4.308;2024-03-25T12:47:50;5.10;;;1.48;;
39888;SDS011;25563;50.844;4.308;2024-03-25T12:50:16;2.20;;;1.30;;
39888;SDS011;25563;50.844;4.308;2024-03-25T12:52:42;2.95;;;1.10;;
39888;SDS011;25563;50.844;4.308;2024-03-25T12:55:07;4.15;;;1.75;;
39888;SDS011;25563;50.844;4.308;2024-03-25T12:57:34;3.67;;;1.38;;
39888;SDS011;25563;50.844;4.308;2024-03-25T13:00:00;5.55;;;1.35;;
39888;SDS011;25563;50.844;4.308;2024-03-25T13:02:30;5.50;;;1.30;;
39888;SDS011;25563;50.844;4.308;2024-03-25T13:04:56;3.33;;;1.40;;
39888;SDS011;25563;50.844;4.308;2024-03-25T13:07:22;6.95;;;1.40;;
39888;SDS011;25563;50.844;4.308;2024-03-25T13:09:47;2.75;;;1.35;;
39888;SDS011;25563;50.844;4.308;2024-03-25T13:12:13;2.42;;;1.00;;
39888;SDS011;25563;50.844;4.308;2024-03-25T13:14:39;2.72;;;1.27;;
39888;SDS011;25563;50.844;4.308;2024-03-25T13:17:05;4.68;;;1.20;;
39888;SDS011;25563;50.844;4.308;2024-03-25T13:19:30;2.13;;;1.02;;
39888;SDS011;25563;50.844;4.308;2024-03-25T13:21:56;3.67;;;1.15;;
39888;SDS011;25563;50.844;4.308;2024-03-25T13:24:22;2.85;;;1.30;;
39888;SDS011;25563;50.844;4.308;2024-03-25T13:26:48;1.85;;;1.00;;
39888;SDS011;25563;50.844;4.308;2024-03-25T13:29:13;3.05;;;0.90;;
39888;SDS011;25563;50.844;4.308;2024-03-25T13:31:39;9.93;;;1.40;;
39888;SDS011;25563;50.844;4.308;2024-03-25T13:34:06;2.35;;;1.00;;
39888;SDS011;25563;50.844;4.308;2024-03-25T13:36:32;1.58;;;1.02;;
39888;SDS011;25563;50.844;4.308;2024-03-25T13:38:58;1.42;;;1.00;;
39888;SDS011;25563;50.844;4.308;2024-03-25T13:41:23;1.95;;;1.20;;
39888;SDS011;25563;50.844;4.308;2024-03-25T13:43:49;4.05;;;1.35;;
39888;SDS011;25563;50.844;4.308;2024-03-25T13:46:15;3.40;;;1.23;;
39888;SDS011;25563;50.844;4.308;2024-03-25T13:48:41;2.22;;;1.15;;
39888;SDS011;25563;50.844;4.308;2024-03-25T13:51:08;5.65;;;1.27;;
39888;SDS011;25563;50.844;4.308;2024-03-25T13:53:34;2.63;;;1.35;;
39888;SDS011;25563;50.844;4.308;2024-03-25T13:56:00;2.70;;;1.23;;
39888;SDS011;25563;50.844;4.308;2024-03-25T13:58:25;2.28;;;1.38;;
39888;SDS011;25563;50.844;4.308;2024-03-25T14:00:52;5.00;;;1.73;;
39888;SDS011;25563;50.844;4.308;2024-03-25T14:03:17;2.10;;;1.25;;
39888;SDS011;25563;50.844;4.308;2024-03-25T14:05:45;2.28;;;1.13;;
39888;SDS011;25563;50.844;4.308;2024-03-25T14:08:11;2.75;;;1.08;;
39888;SDS011;25563;50.844;4.308;2024-03-25T14:10:38;4.63;;;1.05;;
39888;SDS011;25563;50.844;4.308;2024-03-25T14:13:04;2.40;;;1.20;;
39888;SDS011;25563;50.844;4.308;2024-03-25T14:15:30;3.80;;;1.30;;
39888;SDS011;25563;50.844;4.308;2024-03-25T14:17:57;2.15;;;1.20;;
39888;SDS011;25563;50.844;4.308;2024-03-25T14:20:22;6.18;;;1.55;;
39888;SDS011;25563;50.844;4.308;2024-03-25T14:22:48;2.92;;;1.45;;
39888;SDS011;25563;50.844;4.308;2024-03-25T14:25:14;7.13;;;1.58;;
39888;SDS011;25563;50.844;4.308;2024-03-25T14:27:41;2.05;;;1.10;;
39888;SDS011;25563;50.844;4.308;2024-03-25T14:30:07;3.35;;;1.15;;
39888;SDS011;25563;50.844;4.308;2024-03-25T14:32:36;3.33;;;1.02;;
39888;SDS011;25563;50.844;4.308;2024-03-25T14:35:03;1.52;;;0.85;;
39888;SDS011;25563;50.844;4.308;2024-03-25T14:37:32;5.15;;;1.17;;
39888;SDS011;25563;50.844;4.308;2024-03-25T14:39:58;3.63;;;1.70;;
39888;SDS011;25563;50.844;4.308;2024-03-25T14:42:26;6.75;;;1.20;;
39888;SDS011;25563;50.844;4.308;2024-03-25T14:44:53;3.63;;;1.20;;
39888;SDS011;25563;50.844;4.308;2024-03-25T14:47:19;2.72;;;1.33;;
39888;SDS011;25563;50.844;4.308;2024-03-25T14:49:45;3.33;;;1.00;;